Terminal Aerodrome Forecast
Issued by NWS Cleveland, OH

Home | Current Version | Previous Version | Text Only | Print | Product List | Glossary Off
Versions: 1 2 3 4 5 6 7 8 9 10 11 12 13 14 15 16 17 18 19 20 21 22 23 24 25 26 27 28 29

953
FTUS41 KCLE 200537
TAFCLE
TAF
KCLE 200537Z 2006/2112 VRB03KT P6SM SKC
     FM201700 24005KT P6SM SKC
     FM202100 02005KT P6SM FEW050
     FM210200 16005KT P6SM SKC=

USA.gov is the U.S. government's official web portal to all federal, state and local government web resources and services.